sensor_id;sensor_type;location;lat;lon;timestamp;temperature;humidity
3071;DHT22;1546;47.208;9.038;2022-09-12T00:00:28;14.40;99.90
3071;DHT22;1546;47.208;9.038;2022-09-12T00:03:15;14.40;99.90
3071;DHT22;1546;47.208;9.038;2022-09-12T00:06:00;14.40;99.90
3071;DHT22;1546;47.208;9.038;2022-09-12T00:08:47;14.40;99.90
3071;DHT22;1546;47.208;9.038;2022-09-12T00:11:34;14.20;99.90
3071;DHT22;1546;47.208;9.038;2022-09-12T00:14:19;14.20;99.90
3071;DHT22;1546;47.208;9.038;2022-09-12T00:17:05;14.30;99.90
3071;DHT22;1546;47.208;9.038;2022-09-12T00:19:50;14.50;99.90
3071;DHT22;1546;47.208;9.038;2022-09-12T00:22:36;14.50;99.90
3071;DHT22;1546;47.208;9.038;2022-09-12T00:25:23;14.50;99.90
3071;DHT22;1546;47.208;9.038;2022-09-12T00:28:10;14.40;99.90
3071;DHT22;1546;47.208;9.038;2022-09-12T00:30:56;14.30;99.90
3071;DHT22;1546;47.208;9.038;2022-09-12T00:33:42;14.20;99.90
3071;DHT22;1546;47.208;9.038;2022-09-12T00:36:28;14.20;99.90
3071;DHT22;1546;47.208;9.038;2022-09-12T00:39:15;14.30;99.90
3071;DHT22;1546;47.208;9.038;2022-09-12T00:42:02;14.20;99.90
3071;DHT22;1546;47.208;9.038;2022-09-12T00:44:50;14.20;99.90
3071;DHT22;1546;47.208;9.038;2022-09-12T00:47:36;14.20;99.90
3071;DHT22;1546;47.208;9.038;2022-09-12T00:50:22;14.20;99.90
3071;DHT22;1546;47.208;9.038;2022-09-12T00:53:08;14.20;99.90
3071;DHT22;1546;47.208;9.038;2022-09-12T00:55:56;14.10;99.90
3071;DHT22;1546;47.208;9.038;2022-09-12T00:58:48;13.90;99.90
3071;DHT22;1546;47.208;9.038;2022-09-12T01:01:34;13.90;99.90
3071;DHT22;1546;47.208;9.038;2022-09-12T01:04:22;14.00;99.90
3071;DHT22;1546;47.208;9.038;2022-09-12T01:07:09;14.00;99.90
3071;DHT22;1546;47.208;9.038;2022-09-12T01:09:55;14.00;99.90
3071;DHT22;1546;47.208;9.038;2022-09-12T01:12:41;14.00;99.90
3071;DHT22;1546;47.208;9.038;2022-09-12T01:15:29;14.10;99.90
3071;DHT22;1546;47.208;9.038;2022-09-12T01:18:19;14.00;99.90
3071;DHT22;1546;47.208;9.038;2022-09-12T01:21:19;13.90;99.90
3071;DHT22;1546;47.208;9.038;2022-09-12T01:24:38;13.90;99.90
3071;DHT22;1546;47.208;9.038;2022-09-12T01:27:58;14.00;99.90
3071;DHT22;1546;47.208;9.038;2022-09-12T01:30:52;14.10;99.90
3071;DHT22;1546;47.208;9.038;2022-09-12T01:33:50;13.90;99.90
3071;DHT22;1546;47.208;9.038;2022-09-12T01:36:45;13.80;99.90
3071;DHT22;1546;47.208;9.038;2022-09-12T01:39:40;13.70;99.90
3071;DHT22;1546;47.208;9.038;2022-09-12T01:42:31;13.70;99.90
3071;DHT22;1546;47.208;9.038;2022-09-12T01:45:22;13.60;99.90
3071;DHT22;1546;47.208;9.038;2022-09-12T01:48:15;13.60;99.90
3071;DHT22;1546;47.208;9.038;2022-09-12T01:51:06;13.50;99.90
3071;DHT22;1546;47.208;9.038;2022-09-12T01:53:58;13.50;99.90
3071;DHT22;1546;47.208;9.038;2022-09-12T01:56:49;13.60;99.90
3071;DHT22;1546;47.208;9.038;2022-09-12T01:59:39;13.60;99.90
3071;DHT22;1546;47.208;9.038;2022-09-12T02:02:29;13.60;99.90
3071;DHT22;1546;47.208;9.038;2022-09-12T02:05:23;13.60;99.90
3071;DHT22;1546;47.208;9.038;2022-09-12T02:08:12;13.70;99.90
3071;DHT22;1546;47.208;9.038;2022-09-12T02:11:01;13.70;99.90
3071;DHT22;1546;47.208;9.038;2022-09-12T02:13:52;13.70;99.90
3071;DHT22;1546;47.208;9.038;2022-09-12T02:16:41;13.70;99.90
3071;DHT22;1546;47.208;9.038;2022-09-12T02:19:33;13.60;99.90
3071;DHT22;1546;47.208;9.038;2022-09-12T02:22:25;13.60;99.90
3071;DHT22;1546;47.208;9.038;2022-09-12T02:25:14;13.60;99.90
3071;DHT22;1546;47.208;9.038;2022-09-12T02:28:05;13.60;99.90
3071;DHT22;1546;47.208;9.038;2022-09-12T02:30:58;13.70;99.90
3071;DHT22;1546;47.208;9.038;2022-09-12T02:33:48;13.70;99.90
3071;DHT22;1546;47.208;9.038;2022-09-12T02:36:45;13.70;99.90
3071;DHT22;1546;47.208;9.038;2022-09-12T02:39:35;13.70;99.90
3071;DHT22;1546;47.208;9.038;2022-09-12T02:42:21;13.70;99.90
3071;DHT22;1546;47.208;9.038;2022-09-12T02:45:08;13.60;99.90
3071;DHT22;1546;47.208;9.038;2022-09-12T02:47:59;13.50;99.90
3071;DHT22;1546;47.208;9.038;2022-09-12T02:50:47;13.50;99.90
3071;DHT22;1546;47.208;9.038;2022-09-12T02:53:32;13.40;99.90
3071;DHT22;1546;47.208;9.038;2022-09-12T02:56:23;13.40;99.90
3071;DHT22;1546;47.208;9.038;2022-09-12T02:59:12;13.40;99.90
3071;DHT22;1546;47.208;9.038;2022-09-12T03:02:19;13.40;99.90
3071;DHT22;1546;47.208;9.038;2022-09-12T03:05:23;13.30;99.90
3071;DHT22;1546;47.208;9.038;2022-09-12T03:08:36;13.10;99.90
3071;DHT22;1546;47.208;9.038;2022-09-12T03:11:34;13.20;99.90
3071;DHT22;1546;47.208;9.038;2022-09-12T03:14:34;13.40;99.90
3071;DHT22;1546;47.208;9.038;2022-09-12T03:17:29;13.50;99.90
3071;DHT22;1546;47.208;9.038;2022-09-12T03:20:23;13.40;99.90
3071;DHT22;1546;47.208;9.038;2022-09-12T03:23:23;13.40;99.90
3071;DHT22;1546;47.208;9.038;2022-09-12T03:26:14;13.30;99.90
3071;DHT22;1546;47.208;9.038;2022-09-12T03:29:02;13.30;99.90
3071;DHT22;1546;47.208;9.038;2022-09-12T03:31:52;13.30;99.90
3071;DHT22;1546;47.208;9.038;2022-09-12T03:34:38;13.20;99.90
3071;DHT22;1546;47.208;9.038;2022-09-12T03:37:24;13.10;99.90
3071;DHT22;1546;47.208;9.038;2022-09-12T03:40:10;13.00;99.90
3071;DHT22;1546;47.208;9.038;2022-09-12T03:42:56;12.90;99.90
3071;DHT22;1546;47.208;9.038;2022-09-12T03:45:43;12.90;99.90
3071;DHT22;1546;47.208;9.038;2022-09-12T03:48:28;12.90;99.90
3071;DHT22;1546;47.208;9.038;2022-09-12T03:51:15;12.90;99.90
3071;DHT22;1546;47.208;9.038;2022-09-12T03:54:00;12.90;99.90
3071;DHT22;1546;47.208;9.038;2022-09-12T03:56:46;13.00;99.90
3071;DHT22;1546;47.208;9.038;2022-09-12T03:59:32;13.00;99.90
3071;DHT22;1546;47.208;9.038;2022-09-12T04:02:19;13.00;99.90
3071;DHT22;1546;47.208;9.038;2022-09-12T04:05:05;13.00;99.90
3071;DHT22;1546;47.208;9.038;2022-09-12T04:07:50;13.10;99.90
3071;DHT22;1546;47.208;9.038;2022-09-12T04:10:36;13.10;99.90
3071;DHT22;1546;47.208;9.038;2022-09-12T04:13:21;13.10;99.90
3071;DHT22;1546;47.208;9.038;2022-09-12T04:16:08;13.00;99.90
3071;DHT22;1546;47.208;9.038;2022-09-12T04:18:55;12.90;99.90
3071;DHT22;1546;47.208;9.038;2022-09-12T04:21:40;12.90;99.90
3071;DHT22;1546;47.208;9.038;2022-09-12T04:24:26;13.00;99.90
3071;DHT22;1546;47.208;9.038;2022-09-12T04:27:12;13.00;99.90
3071;DHT22;1546;47.208;9.038;2022-09-12T04:29:58;13.10;99.90
3071;DHT22;1546;47.208;9.038;2022-09-12T04:32:45;13.00;99.90
3071;DHT22;1546;47.208;9.038;2022-09-12T04:35:34;13.00;99.90
3071;DHT22;1546;47.208;9.038;2022-09-12T04:38:19;13.00;99.90
3071;DHT22;1546;47.208;9.038;2022-09-12T04:41:12;12.90;99.90
3071;DHT22;1546;47.208;9.038;2022-09-12T04:44:00;12.90;99.90
3071;DHT22;1546;47.208;9.038;2022-09-12T04:46:46;12.70;99.90
3071;DHT22;1546;47.208;9.038;2022-09-12T04:49:32;12.70;99.90
3071;DHT22;1546;47.208;9.038;2022-09-12T04:52:19;12.80;99.90
3071;DHT22;1546;47.208;9.038;2022-09-12T04:55:05;12.70;99.90
3071;DHT22;1546;47.208;9.038;2022-09-12T04:57:51;12.70;99.90
3071;DHT22;1546;47.208;9.038;2022-09-12T05:00:37;12.70;99.90
3071;DHT22;1546;47.208;9.038;2022-09-12T05:03:22;12.90;99.90
3071;DHT22;1546;47.208;9.038;2022-09-12T05:06:10;12.90;99.90
3071;DHT22;1546;47.208;9.038;2022-09-12T05:08:57;12.80;99.90
3071;DHT22;1546;47.208;9.038;2022-09-12T05:11:44;12.80;99.90
3071;DHT22;1546;47.208;9.038;2022-09-12T05:14:29;12.90;99.90
3071;DHT22;1546;47.208;9.038;2022-09-12T05:17:15;13.00;99.90
3071;DHT22;1546;47.208;9.038;2022-09-12T05:20:01;13.10;99.90
3071;DHT22;1546;47.208;9.038;2022-09-12T05:22:47;13.10;99.90
3071;DHT22;1546;47.208;9.038;2022-09-12T05:25:34;13.00;99.90
3071;DHT22;1546;47.208;9.038;2022-09-12T05:28:20;12.90;99.90
3071;DHT22;1546;47.208;9.038;2022-09-12T05:31:07;12.90;99.90
3071;DHT22;1546;47.208;9.038;2022-09-12T05:33:54;12.90;99.90
3071;DHT22;1546;47.208;9.038;2022-09-12T05:36:40;12.80;99.90
3071;DHT22;1546;47.208;9.038;2022-09-12T05:39:25;12.90;99.90
3071;DHT22;1546;47.208;9.038;2022-09-12T05:42:13;13.00;99.90
3071;DHT22;1546;47.208;9.038;2022-09-12T05:44:58;13.00;99.90
3071;DHT22;1546;47.208;9.038;2022-09-12T05:47:45;13.00;99.90
3071;DHT22;1546;47.208;9.038;2022-09-12T05:50:31;13.00;99.90
3071;DHT22;1546;47.208;9.038;2022-09-12T05:53:17;13.20;99.90
3071;DHT22;1546;47.208;9.038;2022-09-12T05:56:07;13.20;99.90
3071;DHT22;1546;47.208;9.038;2022-09-12T05:58:56;13.20;99.90
3071;DHT22;1546;47.208;9.038;2022-09-12T06:01:42;13.30;99.90
3071;DHT22;1546;47.208;9.038;2022-09-12T06:04:27;13.30;99.90
3071;DHT22;1546;47.208;9.038;2022-09-12T06:07:13;13.40;99.90
3071;DHT22;1546;47.208;9.038;2022-09-12T06:09:59;13.30;99.90
3071;DHT22;1546;47.208;9.038;2022-09-12T06:12:45;13.30;99.90
3071;DHT22;1546;47.208;9.038;2022-09-12T06:15:32;13.20;99.90
3071;DHT22;1546;47.208;9.038;2022-09-12T06:18:17;13.10;99.90
3071;DHT22;1546;47.208;9.038;2022-09-12T06:21:05;13.30;99.90
3071;DHT22;1546;47.208;9.038;2022-09-12T06:23:52;13.40;99.90
3071;DHT22;1546;47.208;9.038;2022-09-12T06:26:38;13.40;99.90
3071;DHT22;1546;47.208;9.038;2022-09-12T06:29:24;13.50;99.90
3071;DHT22;1546;47.208;9.038;2022-09-12T06:32:11;13.60;99.90
3071;DHT22;1546;47.208;9.038;2022-09-12T06:34:56;13.80;99.90
3071;DHT22;1546;47.208;9.038;2022-09-12T06:37:43;14.10;99.90
3071;DHT22;1546;47.208;9.038;2022-09-12T06:40:28;14.20;99.90
3071;DHT22;1546;47.208;9.038;2022-09-12T06:43:14;14.50;99.90
3071;DHT22;1546;47.208;9.038;2022-09-12T06:45:59;14.70;99.90
3071;DHT22;1546;47.208;9.038;2022-09-12T06:48:46;15.00;99.90
3071;DHT22;1546;47.208;9.038;2022-09-12T06:51:32;15.10;99.90
3071;DHT22;1546;47.208;9.038;2022-09-12T06:54:17;15.00;99.90
3071;DHT22;1546;47.208;9.038;2022-09-12T06:57:03;15.10;99.90
3071;DHT22;1546;47.208;9.038;2022-09-12T06:59:48;15.20;99.90
3071;DHT22;1546;47.208;9.038;2022-09-12T07:02:35;15.40;99.90
3071;DHT22;1546;47.208;9.038;2022-09-12T07:05:22;15.60;99.90
3071;DHT22;1546;47.208;9.038;2022-09-12T07:08:07;15.80;99.90
3071;DHT22;1546;47.208;9.038;2022-09-12T07:10:53;15.90;99.90
3071;DHT22;1546;47.208;9.038;2022-09-12T07:13:39;16.10;99.90
3071;DHT22;1546;47.208;9.038;2022-09-12T07:16:26;16.20;99.90
3071;DHT22;1546;47.208;9.038;2022-09-12T07:19:11;16.30;99.90
3071;DHT22;1546;47.208;9.038;2022-09-12T07:21:58;16.20;99.90
3071;DHT22;1546;47.208;9.038;2022-09-12T07:24:44;16.20;99.90
3071;DHT22;1546;47.208;9.038;2022-09-12T07:27:30;16.20;99.90
3071;DHT22;1546;47.208;9.038;2022-09-12T07:30:16;16.40;99.90
3071;DHT22;1546;47.208;9.038;2022-09-12T07:33:02;16.50;99.90
3071;DHT22;1546;47.208;9.038;2022-09-12T07:35:47;16.90;99.90
3071;DHT22;1546;47.208;9.038;2022-09-12T07:38:35;17.00;99.90
3071;DHT22;1546;47.208;9.038;2022-09-12T07:41:22;17.10;99.90
3071;DHT22;1546;47.208;9.038;2022-09-12T07:44:08;17.20;99.90
3071;DHT22;1546;47.208;9.038;2022-09-12T07:46:53;17.40;99.90
3071;DHT22;1546;47.208;9.038;2022-09-12T07:49:39;17.50;99.90
3071;DHT22;1546;47.208;9.038;2022-09-12T07:52:24;17.50;99.90
3071;DHT22;1546;47.208;9.038;2022-09-12T07:55:12;17.70;99.90
3071;DHT22;1546;47.208;9.038;2022-09-12T07:57:57;17.90;99.90
3071;DHT22;1546;47.208;9.038;2022-09-12T08:00:43;18.50;99.90
3071;DHT22;1546;47.208;9.038;2022-09-12T08:03:29;17.90;99.90
3071;DHT22;1546;47.208;9.038;2022-09-12T08:06:16;17.80;99.90
3071;DHT22;1546;47.208;9.038;2022-09-12T08:09:04;17.90;99.90
3071;DHT22;1546;47.208;9.038;2022-09-12T08:11:52;18.10;99.90
3071;DHT22;1546;47.208;9.038;2022-09-12T08:14:37;18.20;99.90
3071;DHT22;1546;47.208;9.038;2022-09-12T08:17:23;18.30;99.90
3071;DHT22;1546;47.208;9.038;2022-09-12T08:20:09;18.30;99.90
3071;DHT22;1546;47.208;9.038;2022-09-12T08:22:54;18.30;99.90
3071;DHT22;1546;47.208;9.038;2022-09-12T08:25:40;18.30;99.90
3071;DHT22;1546;47.208;9.038;2022-09-12T08:28:27;18.60;99.90
3071;DHT22;1546;47.208;9.038;2022-09-12T08:31:15;18.50;99.90
3071;DHT22;1546;47.208;9.038;2022-09-12T08:34:01;18.60;99.90
3071;DHT22;1546;47.208;9.038;2022-09-12T08:36:47;18.90;99.90
3071;DHT22;1546;47.208;9.038;2022-09-12T08:39:32;19.10;99.80
3071;DHT22;1546;47.208;9.038;2022-09-12T08:42:23;19.30;99.90
3071;DHT22;1546;47.208;9.038;2022-09-12T08:45:21;19.60;99.90
3071;DHT22;1546;47.208;9.038;2022-09-12T08:48:09;19.70;99.00
3071;DHT22;1546;47.208;9.038;2022-09-12T08:50:56;19.70;98.70
3071;DHT22;1546;47.208;9.038;2022-09-12T08:53:43;19.90;97.60
3071;DHT22;1546;47.208;9.038;2022-09-12T08:56:35;19.90;98.40
3071;DHT22;1546;47.208;9.038;2022-09-12T08:59:21;19.90;98.40
3071;DHT22;1546;47.208;9.038;2022-09-12T09:02:21;20.10;99.90
3071;DHT22;1546;47.208;9.038;2022-09-12T09:05:16;20.00;98.90
3071;DHT22;1546;47.208;9.038;2022-09-12T09:08:20;20.00;99.00
3071;DHT22;1546;47.208;9.038;2022-09-12T09:11:20;20.20;98.90
3071;DHT22;1546;47.208;9.038;2022-09-12T09:14:27;20.20;98.90
3071;DHT22;1546;47.208;9.038;2022-09-12T09:17:40;20.20;99.80
3071;DHT22;1546;47.208;9.038;2022-09-12T09:20:29;20.20;99.30
3071;DHT22;1546;47.208;9.038;2022-09-12T09:23:20;20.40;99.30
3071;DHT22;1546;47.208;9.038;2022-09-12T09:26:12;20.70;98.40
3071;DHT22;1546;47.208;9.038;2022-09-12T09:29:03;20.50;98.80
3071;DHT22;1546;47.208;9.038;2022-09-12T09:31:52;20.50;99.20
3071;DHT22;1546;47.208;9.038;2022-09-12T09:34:40;20.70;98.90
3071;DHT22;1546;47.208;9.038;2022-09-12T09:37:28;20.70;97.90
3071;DHT22;1546;47.208;9.038;2022-09-12T09:40:24;20.90;97.80
3071;DHT22;1546;47.208;9.038;2022-09-12T09:43:17;21.00;97.50
3071;DHT22;1546;47.208;9.038;2022-09-12T09:46:06;21.00;97.40
3071;DHT22;1546;47.208;9.038;2022-09-12T09:48:52;21.30;97.40
3071;DHT22;1546;47.208;9.038;2022-09-12T09:51:40;21.60;97.40
3071;DHT22;1546;47.208;9.038;2022-09-12T09:54:30;21.70;97.40
3071;DHT22;1546;47.208;9.038;2022-09-12T09:57:39;21.90;97.40
3071;DHT22;1546;47.208;9.038;2022-09-12T10:00:28;21.90;96.10
3071;DHT22;1546;47.208;9.038;2022-09-12T10:03:33;22.00;96.70
3071;DHT22;1546;47.208;9.038;2022-09-12T10:06:29;22.10;96.40
3071;DHT22;1546;47.208;9.038;2022-09-12T10:09:21;22.30;97.60
3071;DHT22;1546;47.208;9.038;2022-09-12T10:12:20;22.30;95.60
3071;DHT22;1546;47.208;9.038;2022-09-12T10:15:17;22.40;96.70
3071;DHT22;1546;47.208;9.038;2022-09-12T10:18:03;22.30;96.10
3071;DHT22;1546;47.208;9.038;2022-09-12T10:20:49;22.40;97.10
3071;DHT22;1546;47.208;9.038;2022-09-12T10:23:36;22.60;96.90
3071;DHT22;1546;47.208;9.038;2022-09-12T10:26:26;22.70;95.50
3071;DHT22;1546;47.208;9.038;2022-09-12T10:29:19;23.50;96.20
3071;DHT22;1546;47.208;9.038;2022-09-12T10:32:07;24.40;94.40
3071;DHT22;1546;47.208;9.038;2022-09-12T10:34:55;25.40;94.30
3071;DHT22;1546;47.208;9.038;2022-09-12T10:37:50;26.10;98.30
3071;DHT22;1546;47.208;9.038;2022-09-12T10:40:38;26.10;96.60
3071;DHT22;1546;47.208;9.038;2022-09-12T10:43:34;26.60;96.30
3071;DHT22;1546;47.208;9.038;2022-09-12T10:46:23;26.60;95.00
3071;DHT22;1546;47.208;9.038;2022-09-12T10:49:24;25.90;95.20
3071;DHT22;1546;47.208;9.038;2022-09-12T10:52:19;25.80;95.80
3071;DHT22;1546;47.208;9.038;2022-09-12T10:55:12;26.70;94.50
3071;DHT22;1546;47.208;9.038;2022-09-12T10:58:17;26.70;94.20
3071;DHT22;1546;47.208;9.038;2022-09-12T11:01:17;27.30;93.00
3071;DHT22;1546;47.208;9.038;2022-09-12T11:04:28;27.10;92.20
3071;DHT22;1546;47.208;9.038;2022-09-12T11:07:28;26.70;92.90
3071;DHT22;1546;47.208;9.038;2022-09-12T11:10:23;27.00;91.30
3071;DHT22;1546;47.208;9.038;2022-09-12T11:13:21;26.90;92.10
3071;DHT22;1546;47.208;9.038;2022-09-12T11:16:17;27.20;92.30
3071;DHT22;1546;47.208;9.038;2022-09-12T11:19:23;27.70;92.20
3071;DHT22;1546;47.208;9.038;2022-09-12T11:22:22;28.30;79.70
3071;DHT22;1546;47.208;9.038;2022-09-12T11:25:26;28.90;82.40
3071;DHT22;1546;47.208;9.038;2022-09-12T11:28:24;29.20;77.10
3071;DHT22;1546;47.208;9.038;2022-09-12T11:31:32;29.40;71.80
3071;DHT22;1546;47.208;9.038;2022-09-12T11:34:31;29.60;75.30
3071;DHT22;1546;47.208;9.038;2022-09-12T11:37:38;29.60;70.90
3071;DHT22;1546;47.208;9.038;2022-09-12T11:40:31;29.20;72.10
3071;DHT22;1546;47.208;9.038;2022-09-12T11:43:27;29.00;71.90
3071;DHT22;1546;47.208;9.038;2022-09-12T11:46:21;29.00;70.90
3071;DHT22;1546;47.208;9.038;2022-09-12T11:49:18;28.90;71.20
3071;DHT22;1546;47.208;9.038;2022-09-12T11:52:12;29.10;70.30
3071;DHT22;1546;47.208;9.038;2022-09-12T11:55:01;28.90;69.00
3071;DHT22;1546;47.208;9.038;2022-09-12T11:57:51;28.60;70.80
3071;DHT22;1546;47.208;9.038;2022-09-12T12:00:42;29.00;73.30
3071;DHT22;1546;47.208;9.038;2022-09-12T12:03:35;29.20;70.70
3071;DHT22;1546;47.208;9.038;2022-09-12T12:06:25;29.50;69.00
3071;DHT22;1546;47.208;9.038;2022-09-12T12:09:12;30.00;68.70
3071;DHT22;1546;47.208;9.038;2022-09-12T12:12:01;29.80;65.50
3071;DHT22;1546;47.208;9.038;2022-09-12T12:14:49;30.10;66.00
3071;DHT22;1546;47.208;9.038;2022-09-12T12:17:37;30.90;66.10
3071;DHT22;1546;47.208;9.038;2022-09-12T12:20:24;30.50;64.90
3071;DHT22;1546;47.208;9.038;2022-09-12T12:23:23;30.30;64.80
3071;DHT22;1546;47.208;9.038;2022-09-12T12:29:40;30.40;63.50
3071;DHT22;1546;47.208;9.038;2022-09-12T12:32:25;30.70;63.20
3071;DHT22;1546;47.208;9.038;2022-09-12T12:35:37;30.80;63.00
3071;DHT22;1546;47.208;9.038;2022-09-12T12:38:28;30.60;62.60
3071;DHT22;1546;47.208;9.038;2022-09-12T12:41:42;30.80;66.40
3071;DHT22;1546;47.208;9.038;2022-09-12T12:44:47;31.40;62.80
3071;DHT22;1546;47.208;9.038;2022-09-12T12:47:39;32.00;59.40
3071;DHT22;1546;47.208;9.038;2022-09-12T12:50:27;32.20;59.60
3071;DHT22;1546;47.208;9.038;2022-09-12T12:53:18;32.10;59.00
3071;DHT22;1546;47.208;9.038;2022-09-12T12:56:19;31.80;57.40
3071;DHT22;1546;47.208;9.038;2022-09-12T12:59:16;31.80;59.30
3071;DHT22;1546;47.208;9.038;2022-09-12T13:02:03;32.60;57.80
3071;DHT22;1546;47.208;9.038;2022-09-12T13:04:49;33.50;56.40
3071;DHT22;1546;47.208;9.038;2022-09-12T13:07:37;34.80;55.20
3071;DHT22;1546;47.208;9.038;2022-09-12T13:10:27;35.00;52.90
3071;DHT22;1546;47.208;9.038;2022-09-12T13:13:22;35.50;52.90
3071;DHT22;1546;47.208;9.038;2022-09-12T13:16:10;34.70;61.60
3071;DHT22;1546;47.208;9.038;2022-09-12T13:18:59;34.80;58.50
3071;DHT22;1546;47.208;9.038;2022-09-12T13:21:54;35.30;56.50
3071;DHT22;1546;47.208;9.038;2022-09-12T13:24:41;35.00;54.40
3071;DHT22;1546;47.208;9.038;2022-09-12T13:27:29;35.10;53.20
3071;DHT22;1546;47.208;9.038;2022-09-12T13:30:14;34.90;54.10
3071;DHT22;1546;47.208;9.038;2022-09-12T13:33:13;35.10;53.90
3071;DHT22;1546;47.208;9.038;2022-09-12T13:36:26;35.80;54.60
3071;DHT22;1546;47.208;9.038;2022-09-12T13:39:20;35.20;54.30
3071;DHT22;1546;47.208;9.038;2022-09-12T13:42:30;34.40;54.90
3071;DHT22;1546;47.208;9.038;2022-09-12T13:45:22;34.70;54.20
3071;DHT22;1546;47.208;9.038;2022-09-12T13:48:12;34.70;56.40
3071;DHT22;1546;47.208;9.038;2022-09-12T13:51:00;35.60;55.90
3071;DHT22;1546;47.208;9.038;2022-09-12T13:53:46;36.20;52.50
3071;DHT22;1546;47.208;9.038;2022-09-12T13:56:32;36.10;54.60
3071;DHT22;1546;47.208;9.038;2022-09-12T13:59:19;36.00;53.70
3071;DHT22;1546;47.208;9.038;2022-09-12T14:02:16;35.40;54.10
3071;DHT22;1546;47.208;9.038;2022-09-12T14:05:11;35.80;55.00
3071;DHT22;1546;47.208;9.038;2022-09-12T14:07:59;36.30;54.60
3071;DHT22;1546;47.208;9.038;2022-09-12T14:10:46;36.40;54.50
3071;DHT22;1546;47.208;9.038;2022-09-12T14:13:33;36.90;55.00
3071;DHT22;1546;47.208;9.038;2022-09-12T14:16:21;36.00;53.50
3071;DHT22;1546;47.208;9.038;2022-09-12T14:19:10;34.90;54.40
3071;DHT22;1546;47.208;9.038;2022-09-12T14:21:57;34.50;54.70
3071;DHT22;1546;47.208;9.038;2022-09-12T14:24:45;34.80;54.70
3071;DHT22;1546;47.208;9.038;2022-09-12T14:27:39;34.20;55.10
3071;DHT22;1546;47.208;9.038;2022-09-12T14:30:30;32.60;57.00
3071;DHT22;1546;47.208;9.038;2022-09-12T14:33:19;32.60;58.60
3071;DHT22;1546;47.208;9.038;2022-09-12T14:36:10;33.50;56.50
3071;DHT22;1546;47.208;9.038;2022-09-12T14:38:59;34.00;55.80
3071;DHT22;1546;47.208;9.038;2022-09-12T14:41:46;34.00;54.30
3071;DHT22;1546;47.208;9.038;2022-09-12T14:44:33;33.80;55.50
3071;DHT22;1546;47.208;9.038;2022-09-12T14:47:22;33.50;55.70
3071;DHT22;1546;47.208;9.038;2022-09-12T14:50:16;32.30;56.30
3071;DHT22;1546;47.208;9.038;2022-09-12T14:53:04;31.10;56.80
3071;DHT22;1546;47.208;9.038;2022-09-12T14:55:52;30.10;58.70
3071;DHT22;1546;47.208;9.038;2022-09-12T14:58:38;29.90;59.40
3071;DHT22;1546;47.208;9.038;2022-09-12T15:01:24;30.00;59.40
3071;DHT22;1546;47.208;9.038;2022-09-12T15:04:10;30.10;60.20
3071;DHT22;1546;47.208;9.038;2022-09-12T15:06:58;29.70;57.80
3071;DHT22;1546;47.208;9.038;2022-09-12T15:09:43;29.10;60.80
3071;DHT22;1546;47.208;9.038;2022-09-12T15:12:29;28.50;63.10
3071;DHT22;1546;47.208;9.038;2022-09-12T15:15:17;28.00;63.50
3071;DHT22;1546;47.208;9.038;2022-09-12T15:18:03;27.60;65.30
3071;DHT22;1546;47.208;9.038;2022-09-12T15:20:51;27.20;65.70
3071;DHT22;1546;47.208;9.038;2022-09-12T15:23:41;26.90;66.30
3071;DHT22;1546;47.208;9.038;2022-09-12T15:26:28;26.60;66.10
3071;DHT22;1546;47.208;9.038;2022-09-12T15:29:14;26.30;71.30
3071;DHT22;1546;47.208;9.038;2022-09-12T15:32:01;26.10;66.40
3071;DHT22;1546;47.208;9.038;2022-09-12T15:34:47;25.90;69.10
3071;DHT22;1546;47.208;9.038;2022-09-12T15:37:33;25.90;70.00
3071;DHT22;1546;47.208;9.038;2022-09-12T15:40:20;25.80;69.80
3071;DHT22;1546;47.208;9.038;2022-09-12T15:43:05;25.70;69.60
3071;DHT22;1546;47.208;9.038;2022-09-12T15:45:51;25.60;68.60
3071;DHT22;1546;47.208;9.038;2022-09-12T15:48:37;25.70;69.90
3071;DHT22;1546;47.208;9.038;2022-09-12T15:51:22;25.80;66.90
3071;DHT22;1546;47.208;9.038;2022-09-12T15:54:10;25.90;69.40
3071;DHT22;1546;47.208;9.038;2022-09-12T15:56:58;25.90;70.80
3071;DHT22;1546;47.208;9.038;2022-09-12T15:59:43;26.30;70.50
3071;DHT22;1546;47.208;9.038;2022-09-12T16:02:29;26.10;66.40
3071;DHT22;1546;47.208;9.038;2022-09-12T16:05:16;26.10;70.90
3071;DHT22;1546;47.208;9.038;2022-09-12T16:08:02;25.90;70.10
3071;DHT22;1546;47.208;9.038;2022-09-12T16:10:52;25.70;72.50
3071;DHT22;1546;47.208;9.038;2022-09-12T16:13:39;25.60;75.40
3071;DHT22;1546;47.208;9.038;2022-09-12T16:16:25;25.30;74.00
3071;DHT22;1546;47.208;9.038;2022-09-12T16:19:11;25.10;72.50
3071;DHT22;1546;47.208;9.038;2022-09-12T16:21:56;24.90;75.30
3071;DHT22;1546;47.208;9.038;2022-09-12T16:24:42;24.60;77.00
3071;DHT22;1546;47.208;9.038;2022-09-12T16:27:28;24.30;76.00
3071;DHT22;1546;47.208;9.038;2022-09-12T16:30:15;24.00;76.90
3071;DHT22;1546;47.208;9.038;2022-09-12T16:33:00;23.60;80.00
3071;DHT22;1546;47.208;9.038;2022-09-12T16:35:46;23.20;80.50
3071;DHT22;1546;47.208;9.038;2022-09-12T16:38:31;22.90;82.70
3071;DHT22;1546;47.208;9.038;2022-09-12T16:41:20;22.80;83.20
3071;DHT22;1546;47.208;9.038;2022-09-12T16:44:05;22.60;82.80
3071;DHT22;1546;47.208;9.038;2022-09-12T16:46:52;22.40;84.40
3071;DHT22;1546;47.208;9.038;2022-09-12T16:49:38;22.20;84.80
3071;DHT22;1546;47.208;9.038;2022-09-12T16:52:24;22.10;85.40
3071;DHT22;1546;47.208;9.038;2022-09-12T16:55:09;21.90;86.60
3071;DHT22;1546;47.208;9.038;2022-09-12T16:57:55;21.70;86.60
3071;DHT22;1546;47.208;9.038;2022-09-12T17:00:41;21.70;86.70
3071;DHT22;1546;47.208;9.038;2022-09-12T17:03:28;21.60;86.90
3071;DHT22;1546;47.208;9.038;2022-09-12T17:06:15;21.50;86.90
3071;DHT22;1546;47.208;9.038;2022-09-12T17:09:02;21.40;87.60
3071;DHT22;1546;47.208;9.038;2022-09-12T17:11:47;21.30;87.00
3071;DHT22;1546;47.208;9.038;2022-09-12T17:14:33;21.20;88.90
3071;DHT22;1546;47.208;9.038;2022-09-12T17:17:19;21.00;89.10
3071;DHT22;1546;47.208;9.038;2022-09-12T17:20:06;20.90;89.50
3071;DHT22;1546;47.208;9.038;2022-09-12T17:22:52;20.80;90.20
3071;DHT22;1546;47.208;9.038;2022-09-12T17:25:38;20.60;90.60
3071;DHT22;1546;47.208;9.038;2022-09-12T17:28:24;20.50;91.00
3071;DHT22;1546;47.208;9.038;2022-09-12T17:31:11;20.30;91.30
3071;DHT22;1546;47.208;9.038;2022-09-12T17:33:58;20.20;91.20
3071;DHT22;1546;47.208;9.038;2022-09-12T17:36:45;20.10;91.60
3071;DHT22;1546;47.208;9.038;2022-09-12T17:39:31;20.00;91.50
3071;DHT22;1546;47.208;9.038;2022-09-12T17:42:17;20.00;91.50
3071;DHT22;1546;47.208;9.038;2022-09-12T17:45:03;20.10;94.90
3071;DHT22;1546;47.208;9.038;2022-09-12T17:47:49;20.20;92.60
3071;DHT22;1546;47.208;9.038;2022-09-12T17:50:35;20.20;91.80
3071;DHT22;1546;47.208;9.038;2022-09-12T17:53:22;20.20;92.00
3071;DHT22;1546;47.208;9.038;2022-09-12T17:56:09;20.10;92.40
3071;DHT22;1546;47.208;9.038;2022-09-12T17:58:55;19.90;92.50
3071;DHT22;1546;47.208;9.038;2022-09-12T18:01:41;19.80;93.00
3071;DHT22;1546;47.208;9.038;2022-09-12T18:04:45;19.70;93.30
3071;DHT22;1546;47.208;9.038;2022-09-12T18:07:31;19.50;93.80
3071;DHT22;1546;47.208;9.038;2022-09-12T18:10:20;19.40;93.50
3071;DHT22;1546;47.208;9.038;2022-09-12T18:13:05;19.30;93.90
3071;DHT22;1546;47.208;9.038;2022-09-12T18:15:51;19.30;94.10
3071;DHT22;1546;47.208;9.038;2022-09-12T18:18:37;19.20;93.70
3071;DHT22;1546;47.208;9.038;2022-09-12T18:21:23;19.20;93.90
3071;DHT22;1546;47.208;9.038;2022-09-12T18:24:10;19.20;94.00
3071;DHT22;1546;47.208;9.038;2022-09-12T18:26:57;19.20;94.10
3071;DHT22;1546;47.208;9.038;2022-09-12T18:29:45;19.20;93.70